Time;durP1;ratioP1;P1;durP2;ratioP2;P2;SDS_P1;SDS_P2;PMS_P1;PMS_P2;Temp;Humidity;BMP_temperature;BMP_pressure;BME280_temperature;BME280_humidity;BME280_pressure;Samples;Min_cycle;Max_cycle;Signal;HPM_P1;HPM_P2
2021/08/13 00:00:24;;;;;;;;;;;;;;;18.66;91.46;100159.56;5053285;28;865;-63
2021/08/13 00:02:51;;;;;;;;;;;;;;;18.52;91.50;100155.19;5053362;28;865;-63
2021/08/13 00:05:17;;;;;;;;;;;;;;;18.54;92.23;100159.13;5053014;28;869;-63
2021/08/13 00:07:44;;;;;;;;;;;;;;;18.62;92.29;100165.28;5051865;28;1600;-63
2021/08/13 00:10:11;;;;;;;;;;;;;;;18.69;92.37;100176.25;5053271;28;850;-63
2021/08/13 00:12:37;;;;;;;;;;;;;;;18.74;92.10;100174.91;5053384;28;798;-63
2021/08/13 00:15:05;;;;;;;;;;;;;;;18.77;92.16;100185.19;5053729;28;771;-63
2021/08/13 00:17:31;;;;;;;;;;;;;;;18.76;92.06;100187.22;5053086;28;1939;-63
2021/08/13 00:19:58;;;;;;;;;;;;;;;18.74;92.15;100188.91;5053739;28;841;-63
2021/08/13 00:22:25;;;;;;;;;;;;;;;18.72;92.10;100183.75;5053277;28;872;-63
2021/08/13 00:24:51;;;;;;;;;;;;;;;18.70;92.01;100193.84;5053013;28;865;-63
2021/08/13 00:27:18;;;;;;;;;;;;;;;18.68;92.22;100179.50;5052578;28;850;-63
2021/08/13 00:29:44;;;;;;;;;;;;;;;18.68;92.33;100179.50;5052556;28;830;-63
2021/08/13 00:32:10;;;;;;;;;;;;;;;18.72;92.26;100180.94;5052547;28;823;-63
2021/08/13 00:34:38;;;;;;;;;;;;;;;18.73;92.19;100176.94;5052468;28;798;-63
2021/08/13 00:37:05;;;;;;;;;;;;;;;18.72;91.98;100180.94;5052409;28;810;-64
2021/08/13 00:39:32;;;;;;;;;;;;;;;18.67;91.84;100181.53;5052308;28;1949;-64
2021/08/13 00:41:58;;;;;;;;;;;;;;;18.62;91.96;100184.88;5052244;28;875;-64
2021/08/13 00:44:25;;;;;;;;;;;;;;;18.55;91.88;100193.50;5052079;28;1412;-64
2021/08/13 00:46:52;;;;;;;;;;;;;;;18.47;91.68;100189.34;5052263;28;873;-64
2021/08/13 00:49:18;;;;;;;;;;;;;;;18.38;91.66;100195.63;5052465;28;829;-64
2021/08/13 00:51:45;;;;;;;;;;;;;;;18.29;91.77;100190.69;5052204;28;794;-64
2021/08/13 00:54:12;;;;;;;;;;;;;;;18.22;91.80;100182.53;5052114;28;921;-65
2021/08/13 00:56:39;;;;;;;;;;;;;;;18.18;91.68;100184.66;5050882;28;858;-65
2021/08/13 00:59:09;;;;;;;;;;;;;;;18.18;91.90;100187.44;5052174;28;1906;-65
2021/08/13 01:01:35;;;;;;;;;;;;;;;18.19;91.96;100189.00;5052066;28;889;-65
2021/08/13 01:04:02;;;;;;;;;;;;;;;18.23;92.18;100183.31;5051911;28;843;-66
2021/08/13 01:06:29;;;;;;;;;;;;;;;18.26;91.86;100188.00;5051849;28;873;-66
2021/08/13 01:08:56;;;;;;;;;;;;;;;18.20;91.77;100181.38;5051959;28;826;-66
2021/08/13 01:11:43;;;;;;;;;;;;;;;18.10;91.59;100181.25;5051854;28;817;-66
2021/08/13 01:14:25;;;;;;;;;;;;;;;18.03;91.64;100178.69;5051856;28;889;-66
2021/08/13 01:16:53;;;;;;;;;;;;;;;18.01;91.52;100178.34;5051259;28;900;-67
2021/08/13 01:19:26;;;;;;;;;;;;;;;17.94;91.27;100175.75;5051671;28;1882;-67
2021/08/13 01:22:11;;;;;;;;;;;;;;;17.85;91.09;100175.63;5051718;28;849;-67
2021/08/13 01:24:41;;;;;;;;;;;;;;;17.81;91.38;100180.50;5051720;28;806;-67
2021/08/13 01:27:08;;;;;;;;;;;;;;;17.74;91.37;100171.09;5051590;28;957;-67
2021/08/13 01:29:47;;;;;;;;;;;;;;;17.68;91.24;100169.28;5050287;28;1179;-67
2021/08/13 01:32:17;;;;;;;;;;;;;;;17.61;91.41;100172.28;5051600;28;822;-68
2021/08/13 01:34:45;;;;;;;;;;;;;;;17.54;91.26;100168.47;5051410;28;859;-68
2021/08/13 01:37:13;;;;;;;;;;;;;;;17.48;91.50;100167.44;5050269;28;1321;-68
2021/08/13 01:39:41;;;;;;;;;;;;;;;17.46;91.73;100169.09;5051400;28;1941;-68
2021/08/13 01:42:08;;;;;;;;;;;;;;;17.53;91.95;100166.09;5051439;28;898;-68
2021/08/13 01:44:36;;;;;;;;;;;;;;;17.54;91.88;100174.06;5051201;28;1321;-69
2021/08/13 01:47:03;;;;;;;;;;;;;;;17.55;91.77;100169.25;5050176;28;881;-70
2021/08/13 01:49:32;;;;;;;;;;;;;;;17.62;91.89;100179.44;5051302;28;814;-70
2021/08/13 01:51:59;;;;;;;;;;;;;;;17.67;91.57;100179.69;5051300;28;854;-71
2021/08/13 01:54:26;;;;;;;;;;;;;;;17.61;91.27;100172.28;5051259;28;822;-70
2021/08/13 01:56:55;;;;;;;;;;;;;;;17.60;91.47;100174.28;5051344;28;783;-71
2021/08/13 01:59:21;;;;;;;;;;;;;;;17.54;91.34;100176.06;5050162;28;1906;-72
2021/08/13 02:01:49;;;;;;;;;;;;;;;17.45;91.22;100187.06;5051884;28;857;-73
2021/08/13 02:04:20;;;;;;;;;;;;;;;17.45;91.57;100190.66;5050421;28;1170;-73
2021/08/13 02:06:47;;;;;;;;;;;;;;;17.52;91.90;100179.28;5049989;28;811;-74
2021/08/13 02:09:15;;;;;;;;;;;;;;;17.53;91.55;100183.66;5051256;28;909;-73
2021/08/13 02:11:43;;;;;;;;;;;;;;;17.57;91.67;100179.97;5051187;28;869;-75
2021/08/13 02:14:10;;;;;;;;;;;;;;;17.60;91.80;100188.25;5049921;28;1276;-73
2021/08/13 02:16:38;;;;;;;;;;;;;;;17.58;91.50;100192.72;5051231;28;885;-72
2021/08/13 02:19:18;;;;;;;;;;;;;;;17.50;91.51;100201.31;5051097;28;1882;-72
2021/08/13 02:21:46;;;;;;;;;;;;;;;17.41;91.41;100203.16;5050055;28;810;-73
2021/08/13 02:24:13;;;;;;;;;;;;;;;17.33;91.41;100197.75;5050312;28;740;-73
2021/08/13 02:26:39;;;;;;;;;;;;;;;17.30;91.53;100197.84;5051148;28;857;-73
2021/08/13 02:29:06;;;;;;;;;;;;;;;17.41;92.14;100205.94;5054829;28;830;-71
2021/08/13 02:31:33;;;;;;;;;;;;;;;17.44;92.02;100202.28;5054868;28;813;-70
2021/08/13 02:33:59;;;;;;;;;;;;;;;17.45;91.73;100210.22;5054676;28;791;-70
2021/08/13 02:36:49;;;;;;;;;;;;;;;17.45;91.95;100201.03;5053460;28;870;-70
2021/08/13 02:39:22;;;;;;;;;;;;;;;17.53;91.70;100208.78;5054929;28;1944;-70
2021/08/13 02:41:48;;;;;;;;;;;;;;;17.51;91.55;100207.66;5054719;28;1002;-69
2021/08/13 02:44:16;;;;;;;;;;;;;;;17.48;91.50;100202.97;5054266;28;1414;-69
2021/08/13 02:46:52;;;;;;;;;;;;;;;17.43;91.41;100212.69;5054612;28;893;-68
2021/08/13 02:49:20;;;;;;;;;;;;;;;17.39;91.45;100206.41;5054817;28;843;-68
2021/08/13 02:51:48;;;;;;;;;;;;;;;17.40;91.62;100215.56;5054448;28;873;-67
2021/08/13 02:54:21;;;;;;;;;;;;;;;17.39;91.47;100212.00;5054430;28;862;-67
2021/08/13 02:56:49;;;;;;;;;;;;;;;17.42;91.68;100225.06;5053142;28;1313;-67
2021/08/13 02:59:17;;;;;;;;;;;;;;;17.45;91.57;100220.59;5054310;28;1914;-67
2021/08/13 03:01:45;;;;;;;;;;;;;;;17.50;91.55;100225.69;5054553;28;874;-67
2021/08/13 03:04:13;;;;;;;;;;;;;;;17.52;91.45;100226.81;5054245;28;829;-67
2021/08/13 03:06:42;;;;;;;;;;;;;;;17.58;91.45;100224.25;5054242;28;841;-67
2021/08/13 03:09:10;;;;;;;;;;;;;;;17.67;91.66;100227.19;5052846;28;1184;-67
2021/08/13 03:11:38;;;;;;;;;;;;;;;17.72;91.43;100235.03;5054125;28;798;-67
2021/08/13 03:14:06;;;;;;;;;;;;;;;17.77;91.57;100239.31;5054165;28;794;-67
2021/08/13 03:16:34;;;;;;;;;;;;;;;17.82;91.79;100247.19;5054053;28;818;-67
2021/08/13 03:19:01;;;;;;;;;;;;;;;17.88;91.83;100248.22;5053930;28;1909;-67
2021/08/13 03:21:28;;;;;;;;;;;;;;;17.91;91.94;100246.56;5053973;28;810;-67
2021/08/13 03:23:54;;;;;;;;;;;;;;;17.92;92.08;100251.72;5053835;28;897;-67
2021/08/13 03:26:21;;;;;;;;;;;;;;;17.95;92.15;100250.81;5053850;28;810;-67
2021/08/13 03:28:48;;;;;;;;;;;;;;;18.01;92.43;100245.47;5053791;28;886;-68
2021/08/13 03:31:34;;;;;;;;;;;;;;;18.10;92.58;100242.03;5052497;28;881;-67
2021/08/13 03:34:01;;;;;;;;;;;;;;;18.19;92.68;100250.53;5053580;28;846;-67
2021/08/13 03:36:28;;;;;;;;;;;;;;;18.27;92.60;100251.13;5053611;28;873;-67
2021/08/13 03:38:55;;;;;;;;;;;;;;;18.35;92.78;100249.69;5051449;28;1890;-67
2021/08/13 03:41:22;;;;;;;;;;;;;;;18.43;92.88;100253.81;5053550;28;814;-67
2021/08/13 03:43:49;;;;;;;;;;;;;;;18.49;92.78;100249.25;5053447;28;1203;-67
2021/08/13 03:46:15;;;;;;;;;;;;;;;18.53;92.83;100247.13;5053531;28;904;-67
2021/08/13 03:48:42;;;;;;;;;;;;;;;18.61;92.86;100249.72;5053416;28;794;-67
2021/08/13 03:51:09;;;;;;;;;;;;;;;18.67;92.72;100248.72;5053362;28;847;-67
2021/08/13 03:53:35;;;;;;;;;;;;;;;18.76;92.83;100253.63;5053321;28;870;-67
2021/08/13 03:56:02;;;;;;;;;;;;;;;18.83;92.82;100250.63;5053345;28;826;-67
2021/08/13 03:58:29;;;;;;;;;;;;;;;18.90;92.94;100244.00;5053154;28;1919;-67
2021/08/13 04:00:55;;;;;;;;;;;;;;;18.97;92.85;100241.78;5053252;28;842;-67
2021/08/13 04:03:22;;;;;;;;;;;;;;;19.04;92.94;100243.56;5053207;28;857;-67
2021/08/13 04:05:49;;;;;;;;;;;;;;;19.11;93.15;100242.53;5053099;28;881;-68
2021/08/13 04:08:15;;;;;;;;;;;;;;;19.19;93.07;100257.88;5053025;28;846;-68
2021/08/13 04:10:42;;;;;;;;;;;;;;;19.23;92.86;100252.94;5053052;28;811;-67
2021/08/13 04:13:09;;;;;;;;;;;;;;;19.24;92.76;100246.09;5051666;28;878;-68
2021/08/13 04:15:35;;;;;;;;;;;;;;;19.27;92.90;100258.44;5052888;28;795;-68
2021/08/13 04:18:01;;;;;;;;;;;;;;;19.33;93.06;100251.81;5052852;28;1882;-68
2021/08/13 04:20:29;;;;;;;;;;;;;;;19.45;93.07;100252.22;5052766;28;892;-68
2021/08/13 04:22:55;;;;;;;;;;;;;;;19.54;93.10;100252.28;5053129;28;782;-67
2021/08/13 04:25:22;;;;;;;;;;;;;;;19.64;93.16;100255.97;5052761;28;818;-67
2021/08/13 04:27:49;;;;;;;;;;;;;;;19.76;93.16;100255.19;5052618;28;838;-68
2021/08/13 04:30:15;;;;;;;;;;;;;;;19.91;93.23;100256.22;5052676;28;802;-68
2021/08/13 04:32:42;;;;;;;;;;;;;;;20.04;93.04;100258.19;5052647;28;885;-68
2021/08/13 04:35:08;;;;;;;;;;;;;;;20.13;93.28;100261.81;5052816;28;814;-68
2021/08/13 04:37:35;;;;;;;;;;;;;;;20.21;93.11;100265.16;5052646;28;1949;-68
2021/08/13 04:40:03;;;;;;;;;;;;;;;20.42;92.78;100262.78;5052806;28;881;-67
2021/08/13 04:42:30;;;;;;;;;;;;;;;20.58;92.44;100273.81;5052538;28;1001;-67
2021/08/13 04:44:57;;;;;;;;;;;;;;;20.77;91.49;100271.88;5052235;28;1356;-68
2021/08/13 04:47:23;;;;;;;;;;;;;;;21.10;91.48;100274.97;5052416;28;985;-68
2021/08/13 04:49:49;;;;;;;;;;;;;;;21.39;90.90;100268.16;5051125;28;1290;-69
2021/08/13 04:52:18;;;;;;;;;;;;;;;21.58;89.80;100269.75;5052338;28;810;-68
2021/08/13 04:54:48;;;;;;;;;;;;;;;21.80;89.15;100275.22;5052373;28;850;-70
2021/08/13 04:57:15;;;;;;;;;;;;;;;22.16;88.43;100270.06;5052105;28;853;-68
2021/08/13 04:59:42;;;;;;;;;;;;;;;22.59;87.49;100280.13;5052006;28;1910;-69
2021/08/13 05:02:09;;;;;;;;;;;;;;;22.94;85.73;100290.97;5052046;28;825;-69
2021/08/13 05:04:36;;;;;;;;;;;;;;;23.34;84.62;100289.06;5051946;28;822;-68
2021/08/13 05:07:03;;;;;;;;;;;;;;;23.31;83.90;100296.44;5052095;28;806;-68
2021/08/13 05:14:57;;;;;;;;;;;;;;;23.24;84.79;100296.81;5942414;22;1670;-69
2021/08/13 05:17:24;;;;;;;;;;;;;;;23.35;83.25;100297.06;5012223;28;794;-68
2021/08/13 05:19:49;;;;;;;;;;;;;;;23.84;82.06;100307.06;5012121;28;1906;-68
2021/08/13 05:22:18;;;;;;;;;;;;;;;24.50;79.72;100308.06;5011957;28;1093;-68
2021/08/13 05:24:44;;;;;;;;;;;;;;;25.10;76.80;100308.78;5012168;28;807;-68
2021/08/13 05:27:11;;;;;;;;;;;;;;;25.47;75.00;100313.94;5012064;28;826;-68
2021/08/13 05:29:38;;;;;;;;;;;;;;;25.77;69.66;100308.91;5012013;28;803;-68
2021/08/13 05:32:04;;;;;;;;;;;;;;;26.07;68.75;100314.44;5012012;28;850;-68
2021/08/13 05:34:31;;;;;;;;;;;;;;;26.34;65.21;100313.16;5012013;28;893;-66
2021/08/13 05:36:58;;;;;;;;;;;;;;;26.68;66.44;100322.78;5011992;28;806;-66
2021/08/13 05:39:25;;;;;;;;;;;;;;;26.93;67.30;100328.91;5011845;28;1942;-66
2021/08/13 05:41:52;;;;;;;;;;;;;;;26.74;69.70;100337.00;5011898;28;814;-65
2021/08/13 05:44:18;;;;;;;;;;;;;;;26.37;69.80;100334.84;5012057;28;838;-64
2021/08/13 05:46:45;;;;;;;;;;;;;;;26.23;72.17;100333.66;5011915;28;881;-64
2021/08/13 05:49:12;;;;;;;;;;;;;;;26.10;72.18;100338.94;5011747;28;925;-64
2021/08/13 05:51:38;;;;;;;;;;;;;;;26.02;72.09;100351.97;5011730;28;933;-64
2021/08/13 05:54:04;;;;;;;;;;;;;;;25.92;74.14;100353.41;5011863;28;826;-63
2021/08/13 05:56:31;;;;;;;;;;;;;;;25.93;73.90;100347.25;5011839;28;778;-64
2021/08/13 05:59:00;;;;;;;;;;;;;;;25.83;73.79;100346.56;5011577;28;1906;-64
2021/08/13 06:01:27;;;;;;;;;;;;;;;25.98;72.44;100357.84;5011721;28;846;-63
2021/08/13 06:03:54;;;;;;;;;;;;;;;26.08;72.38;100345.09;5015468;28;794;-63
2021/08/13 06:06:21;;;;;;;;;;;;;;;26.37;73.32;100351.84;5015661;28;849;-62
2021/08/13 06:08:47;;;;;;;;;;;;;;;27.01;70.16;100344.19;5015666;28;818;-62
2021/08/13 06:11:14;;;;;;;;;;;;;;;26.96;68.40;100347.75;5015641;28;870;-62
2021/08/13 06:13:41;;;;;;;;;;;;;;;26.38;71.36;100352.63;5015443;28;853;-61
2021/08/13 06:16:08;;;;;;;;;;;;;;;26.92;69.07;100349.28;5036956;28;1239;-61
2021/08/13 06:18:35;;;;;;;;;;;;;;;27.56;68.53;100341.47;5055267;28;1973;-61
2021/08/13 06:21:03;;;;;;;;;;;;;;;27.95;67.40;100350.16;5055059;28;873;-61
2021/08/13 06:23:29;;;;;;;;;;;;;;;29.25;61.86;100350.34;5055119;28;830;-61
2021/08/13 06:25:57;;;;;;;;;;;;;;;30.12;62.68;100354.72;5055024;28;866;-60
2021/08/13 06:28:24;;;;;;;;;;;;;;;31.00;60.75;100355.19;5054882;28;910;-60
2021/08/13 06:30:51;;;;;;;;;;;;;;;31.72;58.54;100356.53;5054884;28;838;-60
2021/08/13 06:33:18;;;;;;;;;;;;;;;31.95;60.09;100350.53;5054812;28;956;-60
2021/08/13 06:35:45;;;;;;;;;;;;;;;31.79;55.35;100348.66;5054755;28;822;-59
2021/08/13 06:38:12;;;;;;;;;;;;;;;31.77;59.00;100357.75;5053540;28;1886;-60
2021/08/13 06:40:38;;;;;;;;;;;;;;;31.99;54.01;100355.97;5054540;28;885;-61
2021/08/13 06:43:04;;;;;;;;;;;;;;;31.92;57.67;100351.59;5054617;28;889;-61
2021/08/13 06:45:32;;;;;;;;;;;;;;;32.02;58.31;100360.59;5054883;28;802;-60
2021/08/13 06:47:58;;;;;;;;;;;;;;;32.40;56.09;100358.50;5054616;28;901;-61
2021/08/13 06:50:25;;;;;;;;;;;;;;;32.26;56.93;100351.97;5054506;28;833;-60
2021/08/13 06:52:52;;;;;;;;;;;;;;;32.35;54.71;100359.38;5054505;28;818;-61
2021/08/13 06:55:19;;;;;;;;;;;;;;;32.60;57.74;100357.19;5054391;28;905;-60
2021/08/13 06:57:46;;;;;;;;;;;;;;;33.03;53.42;100370.53;5054225;28;1886;-61
2021/08/13 07:00:13;;;;;;;;;;;;;;;32.98;56.98;100364.91;5054375;28;830;-61
2021/08/13 07:02:40;;;;;;;;;;;;;;;33.02;54.91;100371.84;5054256;28;849;-61
2021/08/13 07:05:08;;;;;;;;;;;;;;;33.42;57.62;100374.78;5054306;28;881;-61
2021/08/13 07:07:35;;;;;;;;;;;;;;;33.43;58.32;100376.31;5054272;28;802;-61
2021/08/13 07:10:05;;;;;;;;;;;;;;;33.88;56.61;100374.69;5054225;28;817;-62
2021/08/13 07:12:31;;;;;;;;;;;;;;;33.90;53.52;100381.41;5054068;28;814;-62
2021/08/13 07:14:57;;;;;;;;;;;;;;;32.88;54.95;100373.13;5052845;28;1348;-63
2021/08/13 07:17:24;;;;;;;;;;;;;;;32.81;58.40;100382.34;5054361;28;876;-62
2021/08/13 07:19:51;;;;;;;;;;;;;;;33.30;53.97;100373.47;5053946;28;1910;-62
2021/08/13 07:22:17;;;;;;;;;;;;;;;33.84;55.39;100374.25;5053993;28;798;-63
2021/08/13 07:24:43;;;;;;;;;;;;;;;34.07;54.09;100375.31;5053916;28;821;-62
2021/08/13 07:27:10;;;;;;;;;;;;;;;34.32;48.13;100378.69;5053793;28;858;-63
2021/08/13 07:29:37;;;;;;;;;;;;;;;34.08;52.40;100370.38;5054136;28;846;-61
2021/08/13 07:32:04;;;;;;;;;;;;;;;34.14;52.32;100366.06;5053827;28;809;-62
2021/08/13 07:34:31;;;;;;;;;;;;;;;34.45;53.05;100374.25;5053728;28;857;-62
2021/08/13 07:36:57;;;;;;;;;;;;;;;34.72;50.57;100364.22;5053657;28;913;-62
2021/08/13 07:39:24;;;;;;;;;;;;;;;34.34;53.23;100378.91;5053578;28;1886;-61
2021/08/13 07:41:50;;;;;;;;;;;;;;;32.87;59.30;100368.72;5053587;28;822;-61
2021/08/13 07:44:17;;;;;;;;;;;;;;;32.27;60.08;100376.38;5053558;28;939;-62
2021/08/13 07:46:42;;;;;;;;;;;;;;;32.80;58.84;100373.00;5053571;28;810;-61
2021/08/13 07:49:09;;;;;;;;;;;;;;;33.58;55.07;100372.16;5053491;28;857;-61
2021/08/13 07:51:36;;;;;;;;;;;;;;;33.91;54.39;100367.88;5053678;28;881;-61
2021/08/13 07:54:03;;;;;;;;;;;;;;;34.58;50.93;100379.94;5053727;28;786;-62
2021/08/13 07:56:29;;;;;;;;;;;;;;;35.25;51.57;100371.78;5053615;28;869;-61
2021/08/13 07:58:56;;;;;;;;;;;;;;;35.64;51.40;100381.44;5053357;28;1926;-61
2021/08/13 08:01:22;;;;;;;;;;;;;;;36.05;52.01;100378.94;5053362;28;865;-62
2021/08/13 08:03:49;;;;;;;;;;;;;;;36.50;49.26;100380.47;5053291;28;959;-61
2021/08/13 08:06:16;;;;;;;;;;;;;;;36.36;48.11;100377.75;5053445;28;831;-62
2021/08/13 08:08:43;;;;;;;;;;;;;;;36.52;49.46;100377.78;5053388;28;857;-61
2021/08/13 08:11:09;;;;;;;;;;;;;;;35.16;53.93;100380.88;5053383;28;876;-61
2021/08/13 08:13:36;;;;;;;;;;;;;;;33.50;58.89;100378.56;5052882;28;838;-62
2021/08/13 08:16:04;;;;;;;;;;;;;;;32.40;62.38;100374.91;5052776;28;1189;-61
2021/08/13 08:18:31;;;;;;;;;;;;;;;31.41;61.03;100380.75;5052696;28;1964;-62
2021/08/13 08:20:58;;;;;;;;;;;;;;;30.46;64.14;100379.44;5052849;28;830;-62
2021/08/13 08:23:24;;;;;;;;;;;;;;;29.95;66.02;100373.97;5053730;28;762;-62
2021/08/13 08:25:51;;;;;;;;;;;;;;;29.58;67.37;100380.81;5052336;28;967;-62
2021/08/13 08:28:17;;;;;;;;;;;;;;;29.11;67.32;100383.50;5052748;28;822;-63
2021/08/13 08:30:43;;;;;;;;;;;;;;;28.54;66.40;100379.81;5052648;28;833;-63
2021/08/13 08:33:09;;;;;;;;;;;;;;;28.32;67.59;100382.59;5052610;28;829;-63
2021/08/13 08:35:36;;;;;;;;;;;;;;;28.37;66.44;100385.44;5052511;28;845;-63
2021/08/13 08:38:02;;;;;;;;;;;;;;;28.67;66.67;100376.47;5052474;28;1891;-63
2021/08/13 08:40:30;;;;;;;;;;;;;;;29.26;65.25;100380.38;5052503;28;871;-63
2021/08/13 08:42:58;;;;;;;;;;;;;;;29.74;63.49;100373.53;5052363;28;870;-62
2021/08/13 08:45:26;;;;;;;;;;;;;;;30.18;61.67;100373.88;5052423;28;920;-62
2021/08/13 08:47:55;;;;;;;;;;;;;;;30.55;57.67;100367.69;5052212;28;822;-63
2021/08/13 08:50:22;;;;;;;;;;;;;;;30.88;58.39;100371.66;5052776;28;775;-62
2021/08/13 08:52:49;;;;;;;;;;;;;;;30.85;58.22;100373.44;5052312;28;842;-63
2021/08/13 08:55:16;;;;;;;;;;;;;;;30.68;59.38;100365.03;5051112;28;1187;-62
2021/08/13 08:57:44;;;;;;;;;;;;;;;30.46;61.52;100368.03;5052093;28;1890;-63
2021/08/13 09:00:11;;;;;;;;;;;;;;;30.25;63.69;100364.75;5052409;28;798;-62
2021/08/13 09:02:42;;;;;;;;;;;;;;;30.13;62.54;100366.91;5052330;28;941;-63
2021/08/13 09:05:09;;;;;;;;;;;;;;;30.20;63.91;100371.28;5052027;28;809;-63
2021/08/13 09:07:36;;;;;;;;;;;;;;;30.48;59.99;100360.50;5052012;28;1012;-64
2021/08/13 09:10:04;;;;;;;;;;;;;;;30.47;51.28;100361.00;5050650;28;1452;-63
2021/08/13 09:12:31;;;;;;;;;;;;;;;30.80;50.21;100360.00;5051857;28;872;-63
2021/08/13 09:14:58;;;;;;;;;;;;;;;31.25;56.79;100373.13;5051770;28;1326;-64
2021/08/13 09:17:29;;;;;;;;;;;;;;;31.18;54.55;100368.00;5051903;28;797;-63
2021/08/13 09:19:56;;;;;;;;;;;;;;;30.85;54.97;100364.09;5051668;28;1950;-63
2021/08/13 09:22:22;;;;;;;;;;;;;;;30.85;59.53;100364.88;5051819;28;893;-63
2021/08/13 09:24:50;;;;;;;;;;;;;;;30.85;58.46;100358.41;5051726;28;897;-63
2021/08/13 09:27:17;;;;;;;;;;;;;;;30.88;58.28;100363.84;5051673;28;790;-63
2021/08/13 09:30:03;;;;;;;;;;;;;;;30.68;56.78;100367.09;5051670;28;942;-63
2021/08/13 09:32:30;;;;;;;;;;;;;;;30.63;58.28;100365.84;5051938;28;810;-63
2021/08/13 09:34:56;;;;;;;;;;;;;;;30.85;55.73;100367.72;5051682;28;877;-63
2021/08/13 09:37:22;;;;;;;;;;;;;;;31.46;56.34;100379.94;5050890;28;894;-63
2021/08/13 09:39:56;;;;;;;;;;;;;;;31.92;51.48;100369.53;5051535;28;1947;-63
2021/08/13 09:42:31;;;;;;;;;;;;;;;31.92;52.44;100360.97;5051702;28;866;-64
2021/08/13 09:45:03;;;;;;;;;;;;;;;31.77;49.68;100372.03;5051668;28;865;-63
2021/08/13 09:47:42;;;;;;;;;;;;;;;32.00;53.30;100374.66;5051471;28;842;-63
2021/08/13 09:50:09;;;;;;;;;;;;;;;32.50;47.64;100364.59;5050189;28;1560;-63
2021/08/13 09:52:35;;;;;;;;;;;;;;;32.87;47.66;100368.72;5051507;28;897;-63
2021/08/13 09:55:19;;;;;;;;;;;;;;;32.71;51.80;100367.66;5051539;28;858;-64
2021/08/13 09:57:47;;;;;;;;;;;;;;;32.13;50.37;100372.69;5051291;28;1890;-63
2021/08/13 10:00:15;;;;;;;;;;;;;;;31.78;48.66;100379.31;5051352;28;865;-63
2021/08/13 10:02:41;;;;;;;;;;;;;;;32.19;52.27;100377.53;5051356;28;830;-63
2021/08/13 10:05:18;;;;;;;;;;;;;;;32.49;52.15;100378.13;5051312;28;884;-63
2021/08/13 10:07:46;;;;;;;;;;;;;;;32.50;52.74;100370.31;5051539;28;822;-63
2021/08/13 10:10:13;;;;;;;;;;;;;;;32.22;48.21;100371.50;5051200;28;842;-63
2021/08/13 10:12:44;;;;;;;;;;;;;;;31.92;51.79;100380.97;5051528;28;849;-63
2021/08/13 10:15:10;;;;;;;;;;;;;;;31.76;53.86;100376.22;5051166;28;1126;-63
2021/08/13 10:17:37;;;;;;;;;;;;;;;31.52;53.37;100377.78;5051213;28;877;-63
2021/08/13 10:20:04;;;;;;;;;;;;;;;31.49;55.07;100375.22;5051132;28;1914;-63
2021/08/13 10:22:32;;;;;;;;;;;;;;;31.51;52.78;100381.94;5051113;28;881;-63
2021/08/13 10:24:59;;;;;;;;;;;;;;;31.48;53.50;100382.25;5051344;28;869;-63
2021/08/13 10:27:25;;;;;;;;;;;;;;;31.43;56.16;100386.72;5051117;28;896;-63
2021/08/13 10:29:52;;;;;;;;;;;;;;;31.09;56.69;100381.31;5051102;28;877;-63
2021/08/13 10:32:20;;;;;;;;;;;;;;;30.90;57.28;100389.00;5051115;28;861;-63
2021/08/13 10:34:47;;;;;;;;;;;;;;;30.44;55.58;100393.44;5051023;28;1177;-63
2021/08/13 10:37:14;;;;;;;;;;;;;;;30.07;56.67;100395.44;5051026;28;802;-62
2021/08/13 10:39:42;;;;;;;;;;;;;;;29.97;57.26;100388.47;5050837;28;1886;-63
2021/08/13 10:42:13;;;;;;;;;;;;;;;29.83;55.12;100395.25;5050939;28;966;-63
2021/08/13 10:45:00;;;;;;;;;;;;;;;29.92;52.44;100392.13;5050896;28;861;-63
2021/08/13 10:47:31;;;;;;;;;;;;;;;30.09;56.43;100395.69;5050873;28;1961;-63
2021/08/13 10:49:58;;;;;;;;;;;;;;;30.22;53.14;100386.53;5054364;28;812;-62
2021/08/13 10:52:40;;;;;;;;;;;;;;;30.20;54.66;100392.00;5054661;28;884;-62
2021/08/13 10:55:08;;;;;;;;;;;;;;;30.45;55.19;100386.44;5053284;28;1715;-63
2021/08/13 10:57:55;;;;;;;;;;;;;;;30.61;53.37;100394.13;5054661;28;893;-62
2021/08/13 11:00:22;;;;;;;;;;;;;;;30.56;53.62;100394.94;5054478;28;826;-62
2021/08/13 11:03:07;;;;;;;;;;;;;;;30.50;52.02;100386.41;5054635;28;860;-62
2021/08/13 11:05:52;;;;;;;;;;;;;;;30.37;51.76;100376.91;5054267;28;857;-63
2021/08/13 11:08:20;;;;;;;;;;;;;;;30.64;55.15;100375.94;5054284;28;864;-62
2021/08/13 11:10:49;;;;;;;;;;;;;;;30.70;48.33;100370.19;5052850;28;934;-63
2021/08/13 11:13:19;;;;;;;;;;;;;;;31.30;50.25;100373.06;5054271;28;801;-63
2021/08/13 11:15:46;;;;;;;;;;;;;;;31.54;44.16;100372.31;5054087;28;1352;-63
2021/08/13 11:18:25;;;;;;;;;;;;;;;31.30;45.99;100372.28;5054024;28;1979;-63
2021/08/13 11:20:52;;;;;;;;;;;;;;;31.27;43.61;100362.72;5054405;28;782;-63
2021/08/13 11:23:19;;;;;;;;;;;;;;;31.18;46.62;100373.72;5054021;28;877;-63
2021/08/13 11:25:46;;;;;;;;;;;;;;;30.89;50.69;100368.25;5054216;28;858;-63
2021/08/13 11:28:19;;;;;;;;;;;;;;;30.76;48.81;100367.31;5054346;28;806;-63
2021/08/13 11:30:47;;;;;;;;;;;;;;;31.13;50.78;100358.97;5053850;28;834;-63
2021/08/13 11:33:25;;;;;;;;;;;;;;;32.01;45.15;100361.94;5053782;28;873;-64
2021/08/13 11:35:51;;;;;;;;;;;;;;;32.84;39.18;100350.56;5053790;28;842;-63
2021/08/13 11:38:36;;;;;;;;;;;;;;;33.32;37.56;100356.50;5052314;28;1890;-64
2021/08/13 11:41:23;;;;;;;;;;;;;;;33.05;44.16;100349.94;5053549;28;818;-64
2021/08/13 11:43:50;;;;;;;;;;;;;;;32.91;42.08;100352.00;5053616;28;893;-65
2021/08/13 11:46:26;;;;;;;;;;;;;;;32.48;44.38;100353.69;5053544;28;858;-64
2021/08/13 11:48:57;;;;;;;;;;;;;;;33.07;43.65;100348.06;5053825;28;858;-64
2021/08/13 11:51:25;;;;;;;;;;;;;;;33.93;42.11;100342.28;5053490;28;814;-64
2021/08/13 11:53:52;;;;;;;;;;;;;;;34.23;40.21;100336.16;5053407;28;924;-64
2021/08/13 11:56:27;;;;;;;;;;;;;;;33.59;43.32;100350.78;5053361;28;835;-63
2021/08/13 11:59:04;;;;;;;;;;;;;;;33.08;43.75;100343.16;5053197;28;1910;-63
2021/08/13 12:01:51;;;;;;;;;;;;;;;32.77;47.21;100344.69;5052752;28;771;-64
2021/08/13 12:04:24;;;;;;;;;;;;;;;32.15;44.45;100343.53;5051927;28;1276;-64
2021/08/13 12:07:02;;;;;;;;;;;;;;;31.60;44.92;100345.75;5053142;28;861;-63
2021/08/13 12:09:39;;;;;;;;;;;;;;;30.86;45.78;100345.69;5053256;28;807;-64
2021/08/13 12:12:06;;;;;;;;;;;;;;;30.44;49.47;100342.13;5053060;28;858;-63
2021/08/13 12:14:35;;;;;;;;;;;;;;;30.32;52.27;100345.06;5053123;28;904;-63
2021/08/13 12:17:02;;;;;;;;;;;;;;;30.28;52.30;100338.84;5052648;28;1408;-63
2021/08/13 12:19:28;;;;;;;;;;;;;;;30.10;53.32;100342.28;5052813;28;1981;-63
2021/08/13 12:21:59;;;;;;;;;;;;;;;29.82;54.25;100331.03;5052866;28;892;-63
2021/08/13 12:24:33;;;;;;;;;;;;;;;29.76;53.98;100328.22;5053161;28;896;-63
2021/08/13 12:27:01;;;;;;;;;;;;;;;30.18;49.33;100323.34;5052740;28;893;-64
2021/08/13 12:29:29;;;;;;;;;;;;;;;31.05;44.75;100323.75;5052797;28;1086;-63
2021/08/13 12:31:58;;;;;;;;;;;;;;;31.29;46.00;100322.19;5052968;28;806;-63
2021/08/13 12:34:25;;;;;;;;;;;;;;;32.23;47.28;100329.38;5052713;28;854;-63
2021/08/13 12:37:00;;;;;;;;;;;;;;;33.35;42.09;100323.88;5052443;28;814;-64
2021/08/13 12:39:28;;;;;;;;;;;;;;;34.23;41.78;100318.94;5052806;28;1894;-64
2021/08/13 12:41:55;;;;;;;;;;;;;;;34.11;39.94;100323.34;5051201;28;1294;-64
2021/08/13 12:44:22;;;;;;;;;;;;;;;33.17;45.33;100319.03;5052472;28;845;-64
2021/08/13 12:46:51;;;;;;;;;;;;;;;33.44;42.79;100317.72;5052380;28;861;-64
2021/08/13 12:49:19;;;;;;;;;;;;;;;33.56;41.41;100321.13;5052301;28;841;-63
2021/08/13 12:51:45;;;;;;;;;;;;;;;33.75;39.22;100312.41;5052312;28;865;-63
2021/08/13 12:54:32;;;;;;;;;;;;;;;34.60;43.75;100299.03;5052243;28;815;-64
2021/08/13 12:57:01;;;;;;;;;;;;;;;35.46;42.84;100304.84;5052159;28;861;-64
2021/08/13 12:59:34;;;;;;;;;;;;;;;36.05;39.50;100301.28;5052238;28;1894;-64
2021/08/13 13:02:01;;;;;;;;;;;;;;;35.60;36.58;100302.63;5052893;28;975;-64
2021/08/13 13:04:38;;;;;;;;;;;;;;;34.73;39.22;100294.00;5052420;28;938;-64
2021/08/13 13:07:06;;;;;;;;;;;;;;;33.70;35.89;100307.59;5051973;28;869;-63